sensor_id;sensor_type;location;lat;lon;timestamp;temperature;humidity
39033;DHT22;24794;51.982;5.878;2024-01-25T00:00:53;9.00;99.90
39033;DHT22;24794;51.982;5.878;2024-01-25T00:01:53;9.00;99.90
39033;DHT22;24794;51.982;5.878;2024-01-25T00:02:54;8.90;99.90
39033;DHT22;24794;51.982;5.878;2024-01-25T00:03:55;8.90;99.90
39033;DHT22;24794;51.982;5.878;2024-01-25T00:04:55;9.00;99.90
39033;DHT22;24794;51.982;5.878;2024-01-25T00:05:56;8.90;99.90
39033;DHT22;24794;51.982;5.878;2024-01-25T00:06:56;8.90;99.90
39033;DHT22;24794;51.982;5.878;2024-01-25T00:07:57;8.90;99.90
39033;DHT22;24794;51.982;5.878;2024-01-25T00:08:57;8.90;99.90
39033;DHT22;24794;51.982;5.878;2024-01-25T00:09:58;8.80;99.90
39033;DHT22;24794;51.982;5.878;2024-01-25T00:10:59;8.80;99.90
39033;DHT22;24794;51.982;5.878;2024-01-25T00:11:59;8.80;99.90
39033;DHT22;24794;51.982;5.878;2024-01-25T00:13:00;8.80;99.90
39033;DHT22;24794;51.982;5.878;2024-01-25T00:14:01;8.80;99.90
39033;DHT22;24794;51.982;5.878;2024-01-25T00:15:02;8.70;99.90
39033;DHT22;24794;51.982;5.878;2024-01-25T00:16:03;8.70;99.90
39033;DHT22;24794;51.982;5.878;2024-01-25T00:17:04;8.70;99.90
39033;DHT22;24794;51.982;5.878;2024-01-25T00:18:05;8.70;99.90
39033;DHT22;24794;51.982;5.878;2024-01-25T00:19:05;8.70;99.90
39033;DHT22;24794;51.982;5.878;2024-01-25T00:20:06;8.70;99.90
39033;DHT22;24794;51.982;5.878;2024-01-25T00:21:09;8.70;99.90
39033;DHT22;24794;51.982;5.878;2024-01-25T00:22:09;8.70;99.90
39033;DHT22;24794;51.982;5.878;2024-01-25T00:23:10;8.70;99.90
39033;DHT22;24794;51.982;5.878;2024-01-25T00:24:12;8.70;99.90
39033;DHT22;24794;51.982;5.878;2024-01-25T00:25:13;8.70;99.90
39033;DHT22;24794;51.982;5.878;2024-01-25T00:26:13;8.70;99.90
39033;DHT22;24794;51.982;5.878;2024-01-25T00:27:14;8.70;99.90
39033;DHT22;24794;51.982;5.878;2024-01-25T00:28:14;8.60;99.90
39033;DHT22;24794;51.982;5.878;2024-01-25T00:29:15;8.70;99.90
39033;DHT22;24794;51.982;5.878;2024-01-25T00:30:15;8.60;99.90
39033;DHT22;24794;51.982;5.878;2024-01-25T00:31:16;8.60;99.90
39033;DHT22;24794;51.982;5.878;2024-01-25T00:32:16;8.60;99.90
39033;DHT22;24794;51.982;5.878;2024-01-25T00:33:17;8.60;99.90
39033;DHT22;24794;51.982;5.878;2024-01-25T00:34:18;8.60;99.90
39033;DHT22;24794;51.982;5.878;2024-01-25T00:35:19;8.60;99.90
39033;DHT22;24794;51.982;5.878;2024-01-25T00:36:20;8.50;99.90
39033;DHT22;24794;51.982;5.878;2024-01-25T00:37:20;8.60;99.90
39033;DHT22;24794;51.982;5.878;2024-01-25T00:38:21;8.60;99.90
39033;DHT22;24794;51.982;5.878;2024-01-25T00:39:22;8.50;99.90
39033;DHT22;24794;51.982;5.878;2024-01-25T00:40:23;8.60;99.90
39033;DHT22;24794;51.982;5.878;2024-01-25T00:41:24;8.60;99.90
39033;DHT22;24794;51.982;5.878;2024-01-25T00:42:25;8.50;99.90
39033;DHT22;24794;51.982;5.878;2024-01-25T00:43:26;8.50;99.90
39033;DHT22;24794;51.982;5.878;2024-01-25T00:44:27;8.50;99.90
39033;DHT22;24794;51.982;5.878;2024-01-25T00:45:28;8.50;99.90
39033;DHT22;24794;51.982;5.878;2024-01-25T00:46:29;8.50;99.90
39033;DHT22;24794;51.982;5.878;2024-01-25T00:47:29;8.50;99.90
39033;DHT22;24794;51.982;5.878;2024-01-25T00:48:30;8.50;99.90
39033;DHT22;24794;51.982;5.878;2024-01-25T00:49:31;8.50;99.90
39033;DHT22;24794;51.982;5.878;2024-01-25T00:50:32;8.50;99.90
39033;DHT22;24794;51.982;5.878;2024-01-25T00:51:33;8.40;99.90
39033;DHT22;24794;51.982;5.878;2024-01-25T00:52:34;8.40;99.90
39033;DHT22;24794;51.982;5.878;2024-01-25T00:53:36;8.40;99.90
39033;DHT22;24794;51.982;5.878;2024-01-25T00:54:37;8.40;99.90
39033;DHT22;24794;51.982;5.878;2024-01-25T00:55:38;8.50;99.90
39033;DHT22;24794;51.982;5.878;2024-01-25T00:56:38;8.50;99.90
39033;DHT22;24794;51.982;5.878;2024-01-25T00:57:39;8.40;99.90
39033;DHT22;24794;51.982;5.878;2024-01-25T00:58:40;8.40;99.90
39033;DHT22;24794;51.982;5.878;2024-01-25T00:59:41;8.40;99.90
39033;DHT22;24794;51.982;5.878;2024-01-25T01:00:42;8.40;99.90
39033;DHT22;24794;51.982;5.878;2024-01-25T01:01:43;8.40;99.90
39033;DHT22;24794;51.982;5.878;2024-01-25T01:02:47;8.40;99.90
39033;DHT22;24794;51.982;5.878;2024-01-25T01:03:48;8.30;99.90
39033;DHT22;24794;51.982;5.878;2024-01-25T01:04:53;8.30;99.90
39033;DHT22;24794;51.982;5.878;2024-01-25T01:05:53;8.30;99.90
39033;DHT22;24794;51.982;5.878;2024-01-25T01:06:54;8.20;99.90
39033;DHT22;24794;51.982;5.878;2024-01-25T01:07:55;8.20;99.90
39033;DHT22;24794;51.982;5.878;2024-01-25T01:08:56;8.20;99.90
39033;DHT22;24794;51.982;5.878;2024-01-25T01:09:56;8.10;99.90
39033;DHT22;24794;51.982;5.878;2024-01-25T01:10:57;8.10;99.90
39033;DHT22;24794;51.982;5.878;2024-01-25T01:11:58;8.10;99.90
39033;DHT22;24794;51.982;5.878;2024-01-25T01:12:58;8.10;99.90
39033;DHT22;24794;51.982;5.878;2024-01-25T01:13:59;8.00;99.90
39033;DHT22;24794;51.982;5.878;2024-01-25T01:15:00;8.00;99.90
39033;DHT22;24794;51.982;5.878;2024-01-25T01:16:00;8.00;99.90
39033;DHT22;24794;51.982;5.878;2024-01-25T01:17:01;8.00;99.90
39033;DHT22;24794;51.982;5.878;2024-01-25T01:18:01;8.00;99.90
39033;DHT22;24794;51.982;5.878;2024-01-25T01:19:02;7.90;99.90
39033;DHT22;24794;51.982;5.878;2024-01-25T01:20:06;7.90;99.90
39033;DHT22;24794;51.982;5.878;2024-01-25T01:21:06;7.90;99.90
39033;DHT22;24794;51.982;5.878;2024-01-25T01:22:07;7.80;99.90
39033;DHT22;24794;51.982;5.878;2024-01-25T01:23:08;7.80;99.90
39033;DHT22;24794;51.982;5.878;2024-01-25T01:24:08;7.90;99.90
39033;DHT22;24794;51.982;5.878;2024-01-25T01:25:09;7.90;99.90
39033;DHT22;24794;51.982;5.878;2024-01-25T01:26:11;7.90;99.90
39033;DHT22;24794;51.982;5.878;2024-01-25T01:27:11;7.90;99.90
39033;DHT22;24794;51.982;5.878;2024-01-25T01:28:12;7.90;99.90
39033;DHT22;24794;51.982;5.878;2024-01-25T01:29:12;7.90;99.90
39033;DHT22;24794;51.982;5.878;2024-01-25T01:30:13;7.90;99.90
39033;DHT22;24794;51.982;5.878;2024-01-25T01:31:13;7.90;99.90
39033;DHT22;24794;51.982;5.878;2024-01-25T01:32:14;8.00;99.90
39033;DHT22;24794;51.982;5.878;2024-01-25T01:33:15;8.00;99.90
39033;DHT22;24794;51.982;5.878;2024-01-25T01:34:15;8.00;99.90
39033;DHT22;24794;51.982;5.878;2024-01-25T01:35:17;8.00;99.90
39033;DHT22;24794;51.982;5.878;2024-01-25T01:36:18;8.00;99.90
39033;DHT22;24794;51.982;5.878;2024-01-25T01:37:18;7.90;99.90
39033;DHT22;24794;51.982;5.878;2024-01-25T01:38:19;7.90;99.90
39033;DHT22;24794;51.982;5.878;2024-01-25T01:39:20;7.90;99.90
39033;DHT22;24794;51.982;5.878;2024-01-25T01:40:20;7.90;99.90
39033;DHT22;24794;51.982;5.878;2024-01-25T01:41:21;7.80;99.90
39033;DHT22;24794;51.982;5.878;2024-01-25T01:42:22;7.80;99.90
39033;DHT22;24794;51.982;5.878;2024-01-25T01:43:23;7.80;99.90
39033;DHT22;24794;51.982;5.878;2024-01-25T01:44:23;7.80;99.90
39033;DHT22;24794;51.982;5.878;2024-01-25T01:45:24;7.80;99.90
39033;DHT22;24794;51.982;5.878;2024-01-25T01:46:28;7.80;99.90
39033;DHT22;24794;51.982;5.878;2024-01-25T01:47:31;7.80;99.90
39033;DHT22;24794;51.982;5.878;2024-01-25T01:48:32;7.80;99.90
39033;DHT22;24794;51.982;5.878;2024-01-25T01:49:33;7.80;99.90
39033;DHT22;24794;51.982;5.878;2024-01-25T01:50:33;7.80;99.90
39033;DHT22;24794;51.982;5.878;2024-01-25T01:51:34;7.80;99.90
39033;DHT22;24794;51.982;5.878;2024-01-25T01:52:36;7.80;99.90
39033;DHT22;24794;51.982;5.878;2024-01-25T01:53:37;7.80;99.90
39033;DHT22;24794;51.982;5.878;2024-01-25T01:54:38;7.80;99.90
39033;DHT22;24794;51.982;5.878;2024-01-25T01:55:40;7.80;99.90
39033;DHT22;24794;51.982;5.878;2024-01-25T01:56:43;7.80;99.90
39033;DHT22;24794;51.982;5.878;2024-01-25T01:57:45;7.80;99.90
39033;DHT22;24794;51.982;5.878;2024-01-25T01:58:48;7.80;99.90
39033;DHT22;24794;51.982;5.878;2024-01-25T01:59:49;7.80;99.90
39033;DHT22;24794;51.982;5.878;2024-01-25T02:00:50;7.80;99.90
39033;DHT22;24794;51.982;5.878;2024-01-25T02:01:52;7.70;99.90
39033;DHT22;24794;51.982;5.878;2024-01-25T02:02:52;7.80;99.90
39033;DHT22;24794;51.982;5.878;2024-01-25T02:03:53;7.80;99.90
39033;DHT22;24794;51.982;5.878;2024-01-25T02:04:54;7.70;99.90
39033;DHT22;24794;51.982;5.878;2024-01-25T02:05:54;7.70;99.90
39033;DHT22;24794;51.982;5.878;2024-01-25T02:06:55;7.80;99.90
39033;DHT22;24794;51.982;5.878;2024-01-25T02:07:56;7.70;99.90
39033;DHT22;24794;51.982;5.878;2024-01-25T02:08:56;7.70;99.90
39033;DHT22;24794;51.982;5.878;2024-01-25T02:10:00;7.70;99.90
39033;DHT22;24794;51.982;5.878;2024-01-25T02:11:02;7.70;99.90
39033;DHT22;24794;51.982;5.878;2024-01-25T02:12:03;7.60;99.90
39033;DHT22;24794;51.982;5.878;2024-01-25T02:13:03;7.60;99.90
39033;DHT22;24794;51.982;5.878;2024-01-25T02:14:04;7.60;99.90
39033;DHT22;24794;51.982;5.878;2024-01-25T02:15:05;7.60;99.90
39033;DHT22;24794;51.982;5.878;2024-01-25T02:16:07;7.60;99.90
39033;DHT22;24794;51.982;5.878;2024-01-25T02:17:08;7.60;99.90
39033;DHT22;24794;51.982;5.878;2024-01-25T02:18:09;7.50;99.90
39033;DHT22;24794;51.982;5.878;2024-01-25T02:19:10;7.60;99.90
39033;DHT22;24794;51.982;5.878;2024-01-25T02:20:10;7.60;99.90
39033;DHT22;24794;51.982;5.878;2024-01-25T02:21:11;7.60;99.90
39033;DHT22;24794;51.982;5.878;2024-01-25T02:22:15;7.50;99.90
39033;DHT22;24794;51.982;5.878;2024-01-25T02:23:15;7.50;99.90
39033;DHT22;24794;51.982;5.878;2024-01-25T02:24:16;7.50;99.90
39033;DHT22;24794;51.982;5.878;2024-01-25T02:25:17;7.50;99.90
39033;DHT22;24794;51.982;5.878;2024-01-25T02:26:17;7.50;99.90
39033;DHT22;24794;51.982;5.878;2024-01-25T02:27:18;7.40;99.90
39033;DHT22;24794;51.982;5.878;2024-01-25T02:28:18;7.40;99.90
39033;DHT22;24794;51.982;5.878;2024-01-25T02:29:19;7.40;99.90
39033;DHT22;24794;51.982;5.878;2024-01-25T02:30:20;7.40;99.90
39033;DHT22;24794;51.982;5.878;2024-01-25T02:31:20;7.40;99.90
39033;DHT22;24794;51.982;5.878;2024-01-25T02:32:21;7.40;99.90
39033;DHT22;24794;51.982;5.878;2024-01-25T02:33:22;7.40;99.90
39033;DHT22;24794;51.982;5.878;2024-01-25T02:34:22;7.40;99.90
39033;DHT22;24794;51.982;5.878;2024-01-25T02:35:23;7.40;99.90
39033;DHT22;24794;51.982;5.878;2024-01-25T02:36:24;7.50;99.90
39033;DHT22;24794;51.982;5.878;2024-01-25T02:37:24;7.50;99.90
39033;DHT22;24794;51.982;5.878;2024-01-25T02:38:25;7.50;99.90
39033;DHT22;24794;51.982;5.878;2024-01-25T02:39:25;7.50;99.90
39033;DHT22;24794;51.982;5.878;2024-01-25T02:40:26;7.40;99.90
39033;DHT22;24794;51.982;5.878;2024-01-25T02:41:29;7.40;99.90
39033;DHT22;24794;51.982;5.878;2024-01-25T02:42:30;7.40;99.90
39033;DHT22;24794;51.982;5.878;2024-01-25T02:43:31;7.40;99.90
39033;DHT22;24794;51.982;5.878;2024-01-25T02:44:31;7.40;99.90
39033;DHT22;24794;51.982;5.878;2024-01-25T02:45:32;7.40;99.90
39033;DHT22;24794;51.982;5.878;2024-01-25T02:46:32;7.40;99.90
39033;DHT22;24794;51.982;5.878;2024-01-25T02:47:33;7.40;99.90
39033;DHT22;24794;51.982;5.878;2024-01-25T02:48:34;7.40;99.90
39033;DHT22;24794;51.982;5.878;2024-01-25T02:49:35;7.40;99.90
39033;DHT22;24794;51.982;5.878;2024-01-25T02:50:36;7.40;99.90
39033;DHT22;24794;51.982;5.878;2024-01-25T02:51:36;7.40;99.90
39033;DHT22;24794;51.982;5.878;2024-01-25T02:52:37;7.30;99.90
39033;DHT22;24794;51.982;5.878;2024-01-25T02:53:37;7.30;99.90
39033;DHT22;24794;51.982;5.878;2024-01-25T02:54:38;7.30;99.90
39033;DHT22;24794;51.982;5.878;2024-01-25T02:55:38;7.20;99.90
39033;DHT22;24794;51.982;5.878;2024-01-25T02:56:39;7.20;99.90
39033;DHT22;24794;51.982;5.878;2024-01-25T02:57:39;7.20;99.90
39033;DHT22;24794;51.982;5.878;2024-01-25T02:58:40;7.20;99.90
39033;DHT22;24794;51.982;5.878;2024-01-25T02:59:40;7.20;99.90
39033;DHT22;24794;51.982;5.878;2024-01-25T03:00:41;7.20;99.90
39033;DHT22;24794;51.982;5.878;2024-01-25T03:01:42;7.20;99.90
39033;DHT22;24794;51.982;5.878;2024-01-25T03:02:42;7.20;99.90
39033;DHT22;24794;51.982;5.878;2024-01-25T03:03:43;7.20;99.90
39033;DHT22;24794;51.982;5.878;2024-01-25T03:04:43;7.10;99.90
39033;DHT22;24794;51.982;5.878;2024-01-25T03:05:44;7.10;99.90
39033;DHT22;24794;51.982;5.878;2024-01-25T03:06:45;7.10;99.90
39033;DHT22;24794;51.982;5.878;2024-01-25T03:07:45;7.10;99.90
39033;DHT22;24794;51.982;5.878;2024-01-25T03:08:46;7.10;99.90
39033;DHT22;24794;51.982;5.878;2024-01-25T03:09:46;7.10;99.90
39033;DHT22;24794;51.982;5.878;2024-01-25T03:10:47;7.10;99.90
39033;DHT22;24794;51.982;5.878;2024-01-25T03:11:49;7.10;99.90
39033;DHT22;24794;51.982;5.878;2024-01-25T03:12:50;7.10;99.90
39033;DHT22;24794;51.982;5.878;2024-01-25T03:13:51;7.10;99.90
39033;DHT22;24794;51.982;5.878;2024-01-25T03:14:51;7.10;99.90
39033;DHT22;24794;51.982;5.878;2024-01-25T03:15:52;7.10;99.90
39033;DHT22;24794;51.982;5.878;2024-01-25T03:16:52;7.10;99.90
39033;DHT22;24794;51.982;5.878;2024-01-25T03:17:53;7.10;99.90
39033;DHT22;24794;51.982;5.878;2024-01-25T03:18:54;7.00;99.90
39033;DHT22;24794;51.982;5.878;2024-01-25T03:19:54;7.00;99.90
39033;DHT22;24794;51.982;5.878;2024-01-25T03:20:55;7.00;99.90
39033;DHT22;24794;51.982;5.878;2024-01-25T03:21:55;7.00;99.90
39033;DHT22;24794;51.982;5.878;2024-01-25T03:22:56;7.00;99.90
39033;DHT22;24794;51.982;5.878;2024-01-25T03:23:56;7.00;99.90
39033;DHT22;24794;51.982;5.878;2024-01-25T03:24:57;6.90;99.90
39033;DHT22;24794;51.982;5.878;2024-01-25T03:25:57;6.90;99.90
39033;DHT22;24794;51.982;5.878;2024-01-25T03:26:58;6.90;99.90
39033;DHT22;24794;51.982;5.878;2024-01-25T03:27:59;6.90;99.90
39033;DHT22;24794;51.982;5.878;2024-01-25T03:29:00;6.90;99.90
39033;DHT22;24794;51.982;5.878;2024-01-25T03:30:01;6.90;99.90
39033;DHT22;24794;51.982;5.878;2024-01-25T03:31:01;6.90;99.90
39033;DHT22;24794;51.982;5.878;2024-01-25T03:32:02;6.90;99.90
39033;DHT22;24794;51.982;5.878;2024-01-25T03:33:02;6.90;99.90
39033;DHT22;24794;51.982;5.878;2024-01-25T03:34:03;6.90;99.90
39033;DHT22;24794;51.982;5.878;2024-01-25T03:35:05;6.90;99.90
39033;DHT22;24794;51.982;5.878;2024-01-25T03:36:06;6.90;99.90
39033;DHT22;24794;51.982;5.878;2024-01-25T03:37:07;6.90;99.90
39033;DHT22;24794;51.982;5.878;2024-01-25T03:38:07;6.90;99.90
39033;DHT22;24794;51.982;5.878;2024-01-25T03:39:08;6.80;99.90
39033;DHT22;24794;51.982;5.878;2024-01-25T03:40:09;6.90;99.90
39033;DHT22;24794;51.982;5.878;2024-01-25T03:41:09;6.80;99.90
39033;DHT22;24794;51.982;5.878;2024-01-25T03:42:10;6.90;99.90
39033;DHT22;24794;51.982;5.878;2024-01-25T03:43:11;6.80;99.90
39033;DHT22;24794;51.982;5.878;2024-01-25T03:44:11;6.90;99.90
39033;DHT22;24794;51.982;5.878;2024-01-25T03:45:12;6.90;99.90
39033;DHT22;24794;51.982;5.878;2024-01-25T03:46:12;6.80;99.90
39033;DHT22;24794;51.982;5.878;2024-01-25T03:47:13;6.90;99.90
39033;DHT22;24794;51.982;5.878;2024-01-25T03:48:14;6.80;99.90
39033;DHT22;24794;51.982;5.878;2024-01-25T03:49:14;6.80;99.90
39033;DHT22;24794;51.982;5.878;2024-01-25T03:50:15;6.80;99.90
39033;DHT22;24794;51.982;5.878;2024-01-25T03:51:16;6.80;99.90
39033;DHT22;24794;51.982;5.878;2024-01-25T03:52:17;6.80;99.90
39033;DHT22;24794;51.982;5.878;2024-01-25T03:53:17;6.80;99.90
39033;DHT22;24794;51.982;5.878;2024-01-25T03:54:18;6.80;99.90
39033;DHT22;24794;51.982;5.878;2024-01-25T03:55:18;6.80;99.90
39033;DHT22;24794;51.982;5.878;2024-01-25T03:56:19;6.90;99.90
39033;DHT22;24794;51.982;5.878;2024-01-25T03:57:19;6.90;99.90
39033;DHT22;24794;51.982;5.878;2024-01-25T03:58:20;6.90;99.90
39033;DHT22;24794;51.982;5.878;2024-01-25T03:59:20;6.90;99.90
39033;DHT22;24794;51.982;5.878;2024-01-25T04:00:21;6.90;99.90
39033;DHT22;24794;51.982;5.878;2024-01-25T04:01:23;6.90;99.90
39033;DHT22;24794;51.982;5.878;2024-01-25T04:02:23;6.90;99.90
39033;DHT22;24794;51.982;5.878;2024-01-25T04:03:24;6.90;99.90
39033;DHT22;24794;51.982;5.878;2024-01-25T04:04:24;6.90;99.90
39033;DHT22;24794;51.982;5.878;2024-01-25T04:05:25;6.90;99.90
39033;DHT22;24794;51.982;5.878;2024-01-25T04:06:26;6.90;99.90
39033;DHT22;24794;51.982;5.878;2024-01-25T04:07:27;6.90;99.90
39033;DHT22;24794;51.982;5.878;2024-01-25T04:08:27;6.90;99.90
39033;DHT22;24794;51.982;5.878;2024-01-25T04:09:28;6.90;99.90
39033;DHT22;24794;51.982;5.878;2024-01-25T04:10:29;6.90;99.90
39033;DHT22;24794;51.982;5.878;2024-01-25T04:11:29;6.90;99.90
39033;DHT22;24794;51.982;5.878;2024-01-25T04:12:30;6.90;99.90
39033;DHT22;24794;51.982;5.878;2024-01-25T04:13:31;6.80;99.90
39033;DHT22;24794;51.982;5.878;2024-01-25T04:14:32;6.80;99.90
39033;DHT22;24794;51.982;5.878;2024-01-25T04:15:33;6.80;99.90
39033;DHT22;24794;51.982;5.878;2024-01-25T04:16:33;6.80;99.90
39033;DHT22;24794;51.982;5.878;2024-01-25T04:17:34;6.80;99.90
39033;DHT22;24794;51.982;5.878;2024-01-25T04:18:34;6.70;99.90
39033;DHT22;24794;51.982;5.878;2024-01-25T04:19:38;6.70;99.90
39033;DHT22;24794;51.982;5.878;2024-01-25T04:20:40;6.70;99.90
39033;DHT22;24794;51.982;5.878;2024-01-25T04:21:41;6.70;99.90
39033;DHT22;24794;51.982;5.878;2024-01-25T04:22:42;6.60;99.90
39033;DHT22;24794;51.982;5.878;2024-01-25T04:23:42;6.60;99.90
39033;DHT22;24794;51.982;5.878;2024-01-25T04:24:43;6.60;99.90
39033;DHT22;24794;51.982;5.878;2024-01-25T04:25:44;6.60;99.90
39033;DHT22;24794;51.982;5.878;2024-01-25T04:26:45;6.60;99.90
39033;DHT22;24794;51.982;5.878;2024-01-25T04:27:45;6.60;99.90
39033;DHT22;24794;51.982;5.878;2024-01-25T04:28:46;6.50;99.90
39033;DHT22;24794;51.982;5.878;2024-01-25T04:29:46;6.50;99.90
39033;DHT22;24794;51.982;5.878;2024-01-25T04:30:48;6.50;99.90
39033;DHT22;24794;51.982;5.878;2024-01-25T04:31:48;6.40;99.90
39033;DHT22;24794;51.982;5.878;2024-01-25T04:32:49;6.40;99.90
39033;DHT22;24794;51.982;5.878;2024-01-25T04:33:50;6.40;99.90
39033;DHT22;24794;51.982;5.878;2024-01-25T04:34:50;6.30;99.90
39033;DHT22;24794;51.982;5.878;2024-01-25T04:35:51;6.30;99.90
39033;DHT22;24794;51.982;5.878;2024-01-25T04:36:52;6.30;99.90
39033;DHT22;24794;51.982;5.878;2024-01-25T04:37:52;6.30;99.90
39033;DHT22;24794;51.982;5.878;2024-01-25T04:38:53;6.30;99.90
39033;DHT22;24794;51.982;5.878;2024-01-25T04:39:53;6.30;99.90
39033;DHT22;24794;51.982;5.878;2024-01-25T04:40:54;6.30;99.90
39033;DHT22;24794;51.982;5.878;2024-01-25T04:41:54;6.30;99.90
39033;DHT22;24794;51.982;5.878;2024-01-25T04:42:55;6.30;99.90
39033;DHT22;24794;51.982;5.878;2024-01-25T04:43:56;6.30;99.90
39033;DHT22;24794;51.982;5.878;2024-01-25T04:44:56;6.30;99.90
39033;DHT22;24794;51.982;5.878;2024-01-25T04:45:57;6.30;99.90
39033;DHT22;24794;51.982;5.878;2024-01-25T04:46:57;6.40;99.90
39033;DHT22;24794;51.982;5.878;2024-01-25T04:47:58;6.40;99.90
39033;DHT22;24794;51.982;5.878;2024-01-25T04:48:59;6.40;99.90
39033;DHT22;24794;51.982;5.878;2024-01-25T04:49:59;6.40;99.90
39033;DHT22;24794;51.982;5.878;2024-01-25T04:51:00;6.40;99.90
39033;DHT22;24794;51.982;5.878;2024-01-25T04:52:01;6.30;99.90
39033;DHT22;24794;51.982;5.878;2024-01-25T04:53:02;6.30;99.90
39033;DHT22;24794;51.982;5.878;2024-01-25T04:54:02;6.30;99.90
39033;DHT22;24794;51.982;5.878;2024-01-25T04:55:03;6.30;99.90
39033;DHT22;24794;51.982;5.878;2024-01-25T04:56:04;6.30;99.90
39033;DHT22;24794;51.982;5.878;2024-01-25T04:57:05;6.30;99.90
39033;DHT22;24794;51.982;5.878;2024-01-25T04:58:07;6.30;99.90
39033;DHT22;24794;51.982;5.878;2024-01-25T04:59:07;6.30;99.90
39033;DHT22;24794;51.982;5.878;2024-01-25T05:00:09;6.30;99.90
39033;DHT22;24794;51.982;5.878;2024-01-25T05:01:10;6.30;99.90
39033;DHT22;24794;51.982;5.878;2024-01-25T05:02:11;6.30;99.90
39033;DHT22;24794;51.982;5.878;2024-01-25T05:03:11;6.30;99.90
39033;DHT22;24794;51.982;5.878;2024-01-25T05:04:12;6.30;99.90
39033;DHT22;24794;51.982;5.878;2024-01-25T05:05:13;6.30;99.90
39033;DHT22;24794;51.982;5.878;2024-01-25T05:06:13;6.30;99.90
39033;DHT22;24794;51.982;5.878;2024-01-25T05:07:14;6.30;99.90
39033;DHT22;24794;51.982;5.878;2024-01-25T05:08:15;6.30;99.90
39033;DHT22;24794;51.982;5.878;2024-01-25T05:09:15;6.20;99.90
39033;DHT22;24794;51.982;5.878;2024-01-25T05:10:16;6.20;99.90
39033;DHT22;24794;51.982;5.878;2024-01-25T05:11:16;6.20;99.90
39033;DHT22;24794;51.982;5.878;2024-01-25T05:12:17;6.20;99.90
39033;DHT22;24794;51.982;5.878;2024-01-25T05:13:18;6.20;99.90
39033;DHT22;24794;51.982;5.878;2024-01-25T05:14:19;6.20;99.90
39033;DHT22;24794;51.982;5.878;2024-01-25T05:15:20;6.20;99.90
39033;DHT22;24794;51.982;5.878;2024-01-25T05:16:20;6.20;99.90
39033;DHT22;24794;51.982;5.878;2024-01-25T05:17:21;6.20;99.90
39033;DHT22;24794;51.982;5.878;2024-01-25T05:18:21;6.20;99.90
39033;DHT22;24794;51.982;5.878;2024-01-25T05:19:22;6.20;99.90
39033;DHT22;24794;51.982;5.878;2024-01-25T05:20:22;6.20;99.90
39033;DHT22;24794;51.982;5.878;2024-01-25T05:21:23;6.20;99.90
39033;DHT22;24794;51.982;5.878;2024-01-25T05:22:24;6.20;99.90
39033;DHT22;24794;51.982;5.878;2024-01-25T05:23:24;6.10;99.90
39033;DHT22;24794;51.982;5.878;2024-01-25T05:24:25;6.20;99.90
39033;DHT22;24794;51.982;5.878;2024-01-25T05:25:25;6.20;99.90
39033;DHT22;24794;51.982;5.878;2024-01-25T05:26:26;6.20;99.90
39033;DHT22;24794;51.982;5.878;2024-01-25T05:27:27;6.20;99.90
39033;DHT22;24794;51.982;5.878;2024-01-25T05:28:27;6.10;99.90
39033;DHT22;24794;51.982;5.878;2024-01-25T05:29:28;6.10;99.90
39033;DHT22;24794;51.982;5.878;2024-01-25T05:30:28;6.20;99.90
39033;DHT22;24794;51.982;5.878;2024-01-25T05:31:30;6.20;99.90
39033;DHT22;24794;51.982;5.878;2024-01-25T05:32:30;6.20;99.90
39033;DHT22;24794;51.982;5.878;2024-01-25T05:33:31;6.20;99.90
39033;DHT22;24794;51.982;5.878;2024-01-25T05:34:32;6.20;99.90
39033;DHT22;24794;51.982;5.878;2024-01-25T05:35:32;6.20;99.90
39033;DHT22;24794;51.982;5.878;2024-01-25T05:36:36;6.20;99.90
39033;DHT22;24794;51.982;5.878;2024-01-25T05:37:36;6.20;99.90
39033;DHT22;24794;51.982;5.878;2024-01-25T05:38:37;6.20;99.90
39033;DHT22;24794;51.982;5.878;2024-01-25T05:39:37;6.20;99.90
39033;DHT22;24794;51.982;5.878;2024-01-25T05:40:38;6.20;99.90
39033;DHT22;24794;51.982;5.878;2024-01-25T05:41:39;6.20;99.90
39033;DHT22;24794;51.982;5.878;2024-01-25T05:42:40;6.20;99.90
39033;DHT22;24794;51.982;5.878;2024-01-25T05:43:40;6.20;99.90
39033;DHT22;24794;51.982;5.878;2024-01-25T05:44:41;6.20;99.90
39033;DHT22;24794;51.982;5.878;2024-01-25T05:45:41;6.10;99.90
39033;DHT22;24794;51.982;5.878;2024-01-25T05:46:42;6.10;99.90
39033;DHT22;24794;51.982;5.878;2024-01-25T05:47:43;6.10;99.90
39033;DHT22;24794;51.982;5.878;2024-01-25T05:48:43;6.10;99.90
39033;DHT22;24794;51.982;5.878;2024-01-25T05:49:44;6.10;99.90
39033;DHT22;24794;51.982;5.878;2024-01-25T05:50:45;6.00;99.90
39033;DHT22;24794;51.982;5.878;2024-01-25T05:51:45;6.00;99.90
39033;DHT22;24794;51.982;5.878;2024-01-25T05:52:46;6.00;99.90
39033;DHT22;24794;51.982;5.878;2024-01-25T05:53:46;6.00;99.90
39033;DHT22;24794;51.982;5.878;2024-01-25T05:54:47;6.00;99.90
39033;DHT22;24794;51.982;5.878;2024-01-25T05:55:48;6.00;99.90
39033;DHT22;24794;51.982;5.878;2024-01-25T05:56:48;6.00;99.90
39033;DHT22;24794;51.982;5.878;2024-01-25T05:57:49;6.00;99.90
39033;DHT22;24794;51.982;5.878;2024-01-25T05:58:50;6.00;99.90
39033;DHT22;24794;51.982;5.878;2024-01-25T05:59:50;6.00;99.90
39033;DHT22;24794;51.982;5.878;2024-01-25T06:00:51;6.10;99.90
39033;DHT22;24794;51.982;5.878;2024-01-25T06:01:51;6.10;99.90
39033;DHT22;24794;51.982;5.878;2024-01-25T06:02:52;6.10;99.90
39033;DHT22;24794;51.982;5.878;2024-01-25T06:03:52;6.10;99.90
39033;DHT22;24794;51.982;5.878;2024-01-25T06:04:53;6.10;99.90
39033;DHT22;24794;51.982;5.878;2024-01-25T06:05:54;6.10;99.90
39033;DHT22;24794;51.982;5.878;2024-01-25T06:06:54;6.10;99.90
39033;DHT22;24794;51.982;5.878;2024-01-25T06:07:55;6.10;99.90
39033;DHT22;24794;51.982;5.878;2024-01-25T06:08:56;6.10;99.90
39033;DHT22;24794;51.982;5.878;2024-01-25T06:09:56;6.00;99.90
39033;DHT22;24794;51.982;5.878;2024-01-25T06:10:57;6.00;99.90
39033;DHT22;24794;51.982;5.878;2024-01-25T06:11:58;6.00;99.90
39033;DHT22;24794;51.982;5.878;2024-01-25T06:12:58;6.00;99.90
39033;DHT22;24794;51.982;5.878;2024-01-25T06:13:59;6.00;99.90
39033;DHT22;24794;51.982;5.878;2024-01-25T06:14:59;6.00;99.90
39033;DHT22;24794;51.982;5.878;2024-01-25T06:16:00;5.90;99.90
39033;DHT22;24794;51.982;5.878;2024-01-25T06:17:00;5.90;99.90
39033;DHT22;24794;51.982;5.878;2024-01-25T06:18:01;5.90;99.90
39033;DHT22;24794;51.982;5.878;2024-01-25T06:19:03;5.90;99.90
39033;DHT22;24794;51.982;5.878;2024-01-25T06:20:04;5.90;99.90
39033;DHT22;24794;51.982;5.878;2024-01-25T06:21:05;5.90;99.90
39033;DHT22;24794;51.982;5.878;2024-01-25T06:22:05;5.90;99.90
39033;DHT22;24794;51.982;5.878;2024-01-25T06:23:06;5.90;99.90
39033;DHT22;24794;51.982;5.878;2024-01-25T06:24:07;5.90;99.90
39033;DHT22;24794;51.982;5.878;2024-01-25T06:25:08;5.80;99.90
39033;DHT22;24794;51.982;5.878;2024-01-25T06:26:09;5.80;99.90
39033;DHT22;24794;51.982;5.878;2024-01-25T06:27:10;5.80;99.90
39033;DHT22;24794;51.982;5.878;2024-01-25T06:28:10;5.90;99.90
39033;DHT22;24794;51.982;5.878;2024-01-25T06:29:11;5.90;99.90
39033;DHT22;24794;51.982;5.878;2024-01-25T06:30:12;5.90;99.90